Flight Track Log - Related Links

Times and Time Zones

All times are in EDT time to prevent confusion due to time zone crossing. See the SWA9013 flight status page for this flight to view local times or setup timezone preferences in your user account.

Time Position Orientation Groundspeed Altitude Reporting Facility
EDT Latitude Longitude Course Direction KTS MPH feet Rate Location/Type
Tue 12:06:53 AM 38.6833 -121.6000 134° Southeast 144 166 1,500  Level Northern Cal TRACON
Tue 12:07:54 AM 38.6333 -121.5500 142° Southeast 203 234 4,700 3,359 Climbing Northern Cal TRACON
Tue 12:09:57 AM 38.5400 -121.3953 128° Southeast 297 342 11,800 3,717 Climbing Oakland Center
Tue 12:10:58 AM 38.4950 -121.2903 119° Southeast 332 382 16,100 3,934 Climbing Oakland Center
Tue 12:11:59 AM 38.4494 -121.1864 119° Southeast 343 395 19,800 3,197 Climbing Oakland Center
Tue 12:12:00 AM 38.2622 -121.2461 134° Southeast  Level Estimated
Tue 12:13:00 AM 38.3986 -121.0686 119° Southeast 365 420 22,600  Level Oakland Center
Tue 12:14:01 AM 38.3458 -120.9456 119° Southeast 393 452 25,300 2,754 Climbing Oakland Center
Tue 12:15:02 AM 38.2906 -120.8181 119° Southeast 411 473 28,200 2,607 Climbing Oakland Center
Tue 12:16:03 AM 38.2308 -120.6875 120° Southeast 424 488 30,600 2,262 Climbing Oakland Center
Tue 12:17:04 AM 38.1372 -120.5883 140° Southeast 438 504 32,800 2,361 Climbing Oakland Center
Tue 12:18:05 AM 38.0400 -120.4928 142° Southeast 440 506 35,400 2,066 Climbing Oakland Center
Tue 12:19:06 AM 37.9244 -120.3806 143° Southeast 436 502 37,000 1,082 Climbing Oakland Center
Tue 12:20:07 AM 37.8306 -120.2881 142° Southeast 428 493 37,600 1,230 Climbing Oakland Center
Tue 12:21:08 AM 37.7356 -120.1958 142° Southeast 430 495 39,500 1,672 Climbing Oakland Center
Tue 12:22:09 AM 37.6403 -120.1058 143° Southeast 429 494 41,000 738 Climbing Oakland Center
Tue 12:23:10 AM 37.5469 -120.0153 142° Southeast 425 489 41,000  Level Oakland Center
Tue 12:24:11 AM 37.4525 -119.9256 143° Southeast 425 489 41,000  Level Oakland Center
Tue 12:25:12 AM 37.3586 -119.8364 143° Southeast 425 489 41,000  Level Oakland Center
Tue 12:26:14 AM 37.2353 -119.8061 169° South 426 490 41,000  Level Oakland Center
Tue 12:27:15 AM 37.1206 -119.7872 173° South 417 480 41,000  Level Oakland Center
Tue 12:28:16 AM 37.0050 -119.7681 172° South 419 482 41,000  Level Oakland Center
Tue 12:29:17 AM 36.8911 -119.7517 173° South 414 476 41,000  Level Oakland Center
Tue 12:30:18 AM 36.7750 -119.7342 173° South 418 481 41,000  Level Oakland Center
Tue 12:31:19 AM 36.6594 -119.7164 173° South 418 481 41,000  Level Oakland Center
Tue 12:32:20 AM 36.5439 -119.7006 174° South 417 480 41,000  Level Oakland Center
Tue 12:33:21 AM 36.4278 -119.6839 173° South 418 481 41,000  Level Oakland Center
Tue 12:34:22 AM 36.3128 -119.6644 172° South 415 478 41,000  Level Oakland Center
Tue 12:35:23 AM 36.1975 -119.6481 173° South 417 480 41,000  Level Oakland Center
Tue 12:36:24 AM 36.0819 -119.6306 173° South 417 480 41,000  Level Oakland Center
Tue 12:37:25 AM 35.9428 -119.6153 175° South 416 479 41,000  Level Oakland Center
Tue 12:38:26 AM 35.8258 -119.6203 182° South 418 481 41,000  Level Oakland Center
Tue 12:39:27 AM 35.7078 -119.6239 181° South 421 484 41,000  Level Oakland Center
Tue 12:40:28 AM 35.5892 -119.6286 182° South 423 487 41,000  Level Oakland Center
Tue 12:40:58 AM 35.5664 -119.6311 185° South 423 487 41,000  Level Los Angeles Center
Tue 12:42:00 AM 35.4261 -119.6258 178° South 419 482 41,000  Level Los Angeles Center
Tue 12:43:02 AM 35.3217 -119.5575 152° Southeast 422 486 41,000  Level Los Angeles Center
Tue 12:44:03 AM 35.2011 -119.4708 150° Southeast 417 480 41,000  Level Los Angeles Center
Tue 12:45:04 AM 35.0997 -119.3994 150° Southeast 419 482 41,000  Level Los Angeles Center
Tue 12:46:06 AM 34.9981 -119.3278 150° Southeast 419 482 41,000 -439 Level Los Angeles Center
Tue 12:47:07 AM 34.8972 -119.2578 150° Southeast 418 481 40,100 -1,623 Descending Los Angeles Center
Tue 12:48:08 AM 34.8006 -119.1900 150° Southeast 405 466 37,700 -2,439 Descending Los Angeles Center
Tue 12:49:10 AM 34.7053 -119.1222 150° Southeast 408 470 35,100 -2,976 Descending Los Angeles Center
Tue 12:50:11 AM 34.5969 -119.0497 151° Southeast 441 507 31,600 -3,098 Descending Los Angeles Center
Tue 12:51:12 AM 34.4886 -118.9744 150° Southeast 449 517 28,800 -2,927 Descending Los Angeles Center
Tue 12:52:14 AM 34.3653 -118.8897 150° Southeast 427 491 25,600 -2,585 Descending Los Angeles Center
Tue 12:53:15 AM 34.2806 -118.8531 160° South 410 472 23,500 -2,267 Descending Los Angeles Center
Tue 12:54:29 AM 34.1569 -118.8081 163° South 388 447 20,500 -2,667 Descending Los Angeles Center
Tue 12:55:30 AM 34.0356 -118.7631 163° South 373 429 17,500 -2,829 Descending Los Angeles Center
Tue 12:56:32 AM 33.9331 -118.7258 163° South 360 414 14,700 -1,707 Descending Los Angeles Center
Tue 12:57:33 AM 33.8414 -118.6925 163° South 346 398 14,000 -689 Descending Los Angeles Center
Tue 12:58:34 AM 33.7611 -118.6644 164° South 341 392 13,300 -1,610 Descending Los Angeles Center
Tue 12:59:36 AM 33.6586 -118.6128 157° South 337 388 10,700 -1,782 Descending Los Angeles Center
Tue 01:01:00 AM 33.5247 -118.5414 140° Southeast  Level FlightAware Approximate
Tue 01:02:23 AM 33.5833 -118.3833 132° Southeast 282 325 6,500  Level Southern California TRACON
Tue 01:03:30 AM 33.6000 -118.2833 79° East 275 316 5,000 -992 Descending Southern California TRACON
Tue 01:04:30 AM 33.6333 -118.2167 59° Northeast 236 272 4,400 -750 Descending Southern California TRACON
Tue 01:05:30 AM 33.6667 -118.1500 59° Northeast 222 255 3,500 -737 Descending Southern California TRACON
Tue 01:06:24 AM 33.7000 -118.0833 59° Northeast 218 251 3,000 -263 Descending Southern California TRACON
Tue 01:07:24 AM 33.7167 -118.0167 73° East 218 251 3,000 -143 Level Southern California TRACON
Tue 01:08:00 AM 33.7602 -118.0500 North  Level FlightAware Approximate
Tue 01:08:30 AM 33.7500 -117.9500 59° Northeast 208 239 2,700  Level Southern California TRACON
Tue 01:09:00 AM 33.7232 -117.9530 112° Southeast  Level FlightAware Approximate
Tue 01:09:30 AM 33.7833 -117.9000 51° Northeast 194 223 2,300  Level Southern California TRACON
Tue 01:10:00 AM 33.6667 -117.8667 132° Southeast  Level FlightAware Approximate
Tue 01:10:36 AM 33.7667 -117.8500 112° Southeast 150 173 2,000  Level Southern California TRACON
Tue 01:11:00 AM 33.6757 -117.8682 132° Southeast  Level Estimated
Tue 01:11:36 AM 33.7333 -117.8333 157° South 137 158 1,300  Level Southern California TRACON
Tue 01:12:00 AM 33.6757 -117.8682 132° Southeast  Level Estimated
Tue 01:12:31 AM 33.7000 -117.8500 203° Southwest 125 144 700  Level Southern California TRACON
Tue 01:15:00 AM 33.6757 -117.8682 189° South  Level Estimated

Login

Don't have an account? Register now (free) for customized features, flight alerts, and more!